sensor_id;sensor_type;location;lat;lon;timestamp;P1;durP1;ratioP1;P2;durP2;ratioP2
18320;SDS011;54904;54.350;18.664;2023-04-25T00:01:58;1.27;;;1.17;;
18320;SDS011;54904;54.350;18.664;2023-04-25T00:04:25;1.47;;;1.37;;
18320;SDS011;54904;54.350;18.664;2023-04-25T00:06:52;1.13;;;0.90;;
18320;SDS011;54904;54.350;18.664;2023-04-25T00:09:20;1.50;;;1.30;;
18320;SDS011;54904;54.350;18.664;2023-04-25T00:11:47;0.90;;;0.90;;
18320;SDS011;54904;54.350;18.664;2023-04-25T00:14:14;0.90;;;0.90;;
18320;SDS011;54904;54.350;18.664;2023-04-25T00:16:43;1.00;;;1.00;;
18320;SDS011;54904;54.350;18.664;2023-04-25T00:19:10;0.77;;;0.77;;
18320;SDS011;54904;54.350;18.664;2023-04-25T00:21:38;1.00;;;1.00;;
18320;SDS011;54904;54.350;18.664;2023-04-25T00:24:06;0.77;;;0.77;;
18320;SDS011;54904;54.350;18.664;2023-04-25T00:26:33;0.90;;;0.90;;
18320;SDS011;54904;54.350;18.664;2023-04-25T00:29:01;0.80;;;0.80;;
18320;SDS011;54904;54.350;18.664;2023-04-25T00:31:28;1.02;;;1.02;;
18320;SDS011;54904;54.350;18.664;2023-04-25T00:33:56;1.00;;;1.00;;
18320;SDS011;54904;54.350;18.664;2023-04-25T00:36:24;0.90;;;0.90;;
18320;SDS011;54904;54.350;18.664;2023-04-25T00:38:52;0.90;;;0.90;;
18320;SDS011;54904;54.350;18.664;2023-04-25T00:41:20;0.73;;;0.73;;
18320;SDS011;54904;54.350;18.664;2023-04-25T00:43:47;0.80;;;0.80;;
18320;SDS011;54904;54.350;18.664;2023-04-25T00:46:15;0.90;;;0.90;;
18320;SDS011;54904;54.350;18.664;2023-04-25T00:48:42;0.93;;;0.80;;
18320;SDS011;54904;54.350;18.664;2023-04-25T00:51:11;0.80;;;0.80;;
18320;SDS011;54904;54.350;18.664;2023-04-25T00:53:43;0.80;;;0.80;;
18320;SDS011;54904;54.350;18.664;2023-04-25T00:56:10;1.30;;;0.90;;
18320;SDS011;54904;54.350;18.664;2023-04-25T00:58:38;0.87;;;0.87;;
18320;SDS011;54904;54.350;18.664;2023-04-25T01:01:06;0.93;;;0.90;;
18320;SDS011;54904;54.350;18.664;2023-04-25T01:03:34;1.50;;;1.27;;
18320;SDS011;54904;54.350;18.664;2023-04-25T01:06:06;1.10;;;1.10;;
18320;SDS011;54904;54.350;18.664;2023-04-25T01:08:36;1.33;;;1.23;;
18320;SDS011;54904;54.350;18.664;2023-04-25T01:11:05;1.33;;;1.10;;
18320;SDS011;54904;54.350;18.664;2023-04-25T01:13:32;1.10;;;1.10;;
18320;SDS011;54904;54.350;18.664;2023-04-25T01:16:01;0.93;;;0.93;;
18320;SDS011;54904;54.350;18.664;2023-04-25T01:18:29;1.00;;;1.00;;
18320;SDS011;54904;54.350;18.664;2023-04-25T01:20:56;0.90;;;0.90;;
18320;SDS011;54904;54.350;18.664;2023-04-25T01:23:28;0.90;;;0.90;;
18320;SDS011;54904;54.350;18.664;2023-04-25T01:25:58;0.93;;;0.93;;
18320;SDS011;54904;54.350;18.664;2023-04-25T01:28:26;1.07;;;0.97;;
18320;SDS011;54904;54.350;18.664;2023-04-25T01:30:53;0.90;;;0.90;;
18320;SDS011;54904;54.350;18.664;2023-04-25T01:33:21;0.70;;;0.70;;
18320;SDS011;54904;54.350;18.664;2023-04-25T01:35:48;0.90;;;0.90;;
18320;SDS011;54904;54.350;18.664;2023-04-25T01:38:20;1.17;;;1.07;;
18320;SDS011;54904;54.350;18.664;2023-04-25T01:40:47;0.70;;;0.70;;
18320;SDS011;54904;54.350;18.664;2023-04-25T01:43:18;0.90;;;0.90;;
18320;SDS011;54904;54.350;18.664;2023-04-25T01:45:45;1.10;;;1.00;;
18320;SDS011;54904;54.350;18.664;2023-04-25T01:48:14;1.10;;;1.10;;
18320;SDS011;54904;54.350;18.664;2023-04-25T01:50:43;1.30;;;1.23;;
18320;SDS011;54904;54.350;18.664;2023-04-25T01:53:11;1.13;;;1.10;;
18320;SDS011;54904;54.350;18.664;2023-04-25T01:55:43;0.80;;;0.80;;
18320;SDS011;54904;54.350;18.664;2023-04-25T01:58:14;1.37;;;1.27;;
18320;SDS011;54904;54.350;18.664;2023-04-25T02:01:02;1.20;;;1.10;;
18320;SDS011;54904;54.350;18.664;2023-04-25T02:03:36;2.53;;;1.00;;
18320;SDS011;54904;54.350;18.664;2023-04-25T02:06:06;1.20;;;1.20;;
18320;SDS011;54904;54.350;18.664;2023-04-25T02:08:37;0.90;;;0.90;;
18320;SDS011;54904;54.350;18.664;2023-04-25T02:11:06;1.00;;;1.00;;
18320;SDS011;54904;54.350;18.664;2023-04-25T02:13:40;0.87;;;0.87;;
18320;SDS011;54904;54.350;18.664;2023-04-25T02:16:30;0.90;;;0.90;;
18320;SDS011;54904;54.350;18.664;2023-04-25T02:18:59;1.00;;;1.00;;
18320;SDS011;54904;54.350;18.664;2023-04-25T02:21:26;1.33;;;1.23;;
18320;SDS011;54904;54.350;18.664;2023-04-25T02:23:53;1.30;;;1.30;;
18320;SDS011;54904;54.350;18.664;2023-04-25T02:26:22;1.30;;;1.30;;
18320;SDS011;54904;54.350;18.664;2023-04-25T02:28:50;1.10;;;1.10;;
18320;SDS011;54904;54.350;18.664;2023-04-25T02:31:18;1.30;;;1.20;;
18320;SDS011;54904;54.350;18.664;2023-04-25T02:33:45;3.80;;;1.30;;
18320;SDS011;54904;54.350;18.664;2023-04-25T02:36:13;1.00;;;1.00;;
18320;SDS011;54904;54.350;18.664;2023-04-25T02:38:40;1.47;;;1.37;;
18320;SDS011;54904;54.350;18.664;2023-04-25T02:41:07;0.97;;;0.97;;
18320;SDS011;54904;54.350;18.664;2023-04-25T02:43:36;1.30;;;1.20;;
18320;SDS011;54904;54.350;18.664;2023-04-25T02:46:03;1.10;;;1.10;;
18320;SDS011;54904;54.350;18.664;2023-04-25T02:48:30;1.30;;;1.20;;
18320;SDS011;54904;54.350;18.664;2023-04-25T02:50:57;1.20;;;1.10;;
18320;SDS011;54904;54.350;18.664;2023-04-25T02:53:24;1.00;;;1.00;;
18320;SDS011;54904;54.350;18.664;2023-04-25T02:55:53;0.90;;;0.90;;
18320;SDS011;54904;54.350;18.664;2023-04-25T02:58:23;0.80;;;0.80;;
18320;SDS011;54904;54.350;18.664;2023-04-25T03:00:55;0.80;;;0.80;;
18320;SDS011;54904;54.350;18.664;2023-04-25T03:03:22;1.10;;;1.10;;
18320;SDS011;54904;54.350;18.664;2023-04-25T03:05:50;1.10;;;1.10;;
18320;SDS011;54904;54.350;18.664;2023-04-25T03:08:23;0.80;;;0.80;;
18320;SDS011;54904;54.350;18.664;2023-04-25T03:10:50;0.97;;;0.97;;
18320;SDS011;54904;54.350;18.664;2023-04-25T03:13:20;0.80;;;0.80;;
18320;SDS011;54904;54.350;18.664;2023-04-25T03:15:48;1.00;;;1.00;;
18320;SDS011;54904;54.350;18.664;2023-04-25T03:18:16;0.70;;;0.70;;
18320;SDS011;54904;54.350;18.664;2023-04-25T03:20:43;0.90;;;0.90;;
18320;SDS011;54904;54.350;18.664;2023-04-25T03:23:11;1.00;;;1.00;;
18320;SDS011;54904;54.350;18.664;2023-04-25T03:25:41;1.10;;;1.00;;
18320;SDS011;54904;54.350;18.664;2023-04-25T03:28:08;1.40;;;1.30;;
18320;SDS011;54904;54.350;18.664;2023-04-25T03:30:35;1.10;;;1.00;;
18320;SDS011;54904;54.350;18.664;2023-04-25T03:33:02;1.20;;;1.10;;
18320;SDS011;54904;54.350;18.664;2023-04-25T03:35:31;1.10;;;1.10;;
18320;SDS011;54904;54.350;18.664;2023-04-25T03:37:58;1.00;;;1.00;;
18320;SDS011;54904;54.350;18.664;2023-04-25T03:40:29;1.17;;;1.17;;
18320;SDS011;54904;54.350;18.664;2023-04-25T03:43:23;0.80;;;0.80;;
18320;SDS011;54904;54.350;18.664;2023-04-25T03:45:56;1.07;;;0.93;;
18320;SDS011;54904;54.350;18.664;2023-04-25T03:48:24;0.87;;;0.87;;
18320;SDS011;54904;54.350;18.664;2023-04-25T03:50:54;1.00;;;1.00;;
18320;SDS011;54904;54.350;18.664;2023-04-25T03:53:21;1.13;;;0.90;;
18320;SDS011;54904;54.350;18.664;2023-04-25T03:56:07;1.23;;;1.23;;
18320;SDS011;54904;54.350;18.664;2023-04-25T03:58:36;1.20;;;1.10;;
18320;SDS011;54904;54.350;18.664;2023-04-25T04:01:05;1.40;;;1.40;;
18320;SDS011;54904;54.350;18.664;2023-04-25T04:03:35;1.30;;;1.30;;
18320;SDS011;54904;54.350;18.664;2023-04-25T04:06:05;1.43;;;1.37;;
18320;SDS011;54904;54.350;18.664;2023-04-25T04:08:37;1.70;;;1.60;;
18320;SDS011;54904;54.350;18.664;2023-04-25T04:11:05;1.60;;;1.50;;
18320;SDS011;54904;54.350;18.664;2023-04-25T04:13:32;1.20;;;1.10;;
18320;SDS011;54904;54.350;18.664;2023-04-25T04:16:01;1.70;;;1.60;;
18320;SDS011;54904;54.350;18.664;2023-04-25T04:18:30;2.00;;;1.83;;
18320;SDS011;54904;54.350;18.664;2023-04-25T04:20:58;1.27;;;1.27;;
18320;SDS011;54904;54.350;18.664;2023-04-25T04:23:29;2.27;;;1.20;;
18320;SDS011;54904;54.350;18.664;2023-04-25T04:25:58;1.73;;;1.63;;
18320;SDS011;54904;54.350;18.664;2023-04-25T04:28:28;1.80;;;1.63;;
18320;SDS011;54904;54.350;18.664;2023-04-25T04:31:04;1.80;;;1.60;;
18320;SDS011;54904;54.350;18.664;2023-04-25T04:33:31;1.30;;;1.30;;
18320;SDS011;54904;54.350;18.664;2023-04-25T04:36:02;1.87;;;1.77;;
18320;SDS011;54904;54.350;18.664;2023-04-25T04:38:31;1.20;;;1.20;;
18320;SDS011;54904;54.350;18.664;2023-04-25T04:41:01;1.47;;;1.43;;
18320;SDS011;54904;54.350;18.664;2023-04-25T04:43:52;1.70;;;1.60;;
18320;SDS011;54904;54.350;18.664;2023-04-25T04:46:38;1.60;;;1.50;;
18320;SDS011;54904;54.350;18.664;2023-04-25T04:49:29;1.70;;;1.60;;
18320;SDS011;54904;54.350;18.664;2023-04-25T04:52:15;1.20;;;1.10;;
18320;SDS011;54904;54.350;18.664;2023-04-25T04:55:16;1.37;;;1.30;;
18320;SDS011;54904;54.350;18.664;2023-04-25T04:58:09;2.03;;;1.53;;
18320;SDS011;54904;54.350;18.664;2023-04-25T05:00:51;1.17;;;1.07;;
18320;SDS011;54904;54.350;18.664;2023-04-25T05:03:31;2.03;;;1.50;;
18320;SDS011;54904;54.350;18.664;2023-04-25T05:06:01;1.30;;;1.30;;
18320;SDS011;54904;54.350;18.664;2023-04-25T05:08:42;1.77;;;1.67;;
18320;SDS011;54904;54.350;18.664;2023-04-25T05:11:29;1.80;;;1.70;;
18320;SDS011;54904;54.350;18.664;2023-04-25T05:14:23;1.60;;;1.50;;
18320;SDS011;54904;54.350;18.664;2023-04-25T05:17:05;2.87;;;2.37;;
18320;SDS011;54904;54.350;18.664;2023-04-25T05:19:45;2.20;;;2.00;;
18320;SDS011;54904;54.350;18.664;2023-04-25T05:22:38;1.80;;;1.70;;
18320;SDS011;54904;54.350;18.664;2023-04-25T05:25:14;2.30;;;1.60;;
18320;SDS011;54904;54.350;18.664;2023-04-25T05:28:10;1.67;;;1.57;;
18320;SDS011;54904;54.350;18.664;2023-04-25T05:31:17;2.30;;;2.10;;
18320;SDS011;54904;54.350;18.664;2023-04-25T05:34:07;1.60;;;1.50;;
18320;SDS011;54904;54.350;18.664;2023-04-25T05:36:50;1.83;;;1.73;;
18320;SDS011;54904;54.350;18.664;2023-04-25T05:39:18;1.90;;;1.80;;
18320;SDS011;54904;54.350;18.664;2023-04-25T05:42:03;1.60;;;1.50;;
18320;SDS011;54904;54.350;18.664;2023-04-25T05:44:44;1.30;;;1.30;;
18320;SDS011;54904;54.350;18.664;2023-04-25T05:47:24;1.70;;;1.60;;
18320;SDS011;54904;54.350;18.664;2023-04-25T05:50:08;1.50;;;1.40;;
18320;SDS011;54904;54.350;18.664;2023-04-25T05:52:54;2.53;;;1.30;;
18320;SDS011;54904;54.350;18.664;2023-04-25T05:55:33;1.43;;;1.33;;
18320;SDS011;54904;54.350;18.664;2023-04-25T05:58:13;1.50;;;1.40;;
18320;SDS011;54904;54.350;18.664;2023-04-25T06:00:42;1.70;;;1.60;;
18320;SDS011;54904;54.350;18.664;2023-04-25T06:03:10;2.03;;;1.47;;
18320;SDS011;54904;54.350;18.664;2023-04-25T06:05:38;1.43;;;1.30;;
18320;SDS011;54904;54.350;18.664;2023-04-25T06:08:06;2.53;;;2.00;;
18320;SDS011;54904;54.350;18.664;2023-04-25T06:10:33;2.50;;;2.30;;
18320;SDS011;54904;54.350;18.664;2023-04-25T06:13:00;1.60;;;1.50;;
18320;SDS011;54904;54.350;18.664;2023-04-25T06:15:28;1.57;;;1.47;;
18320;SDS011;54904;54.350;18.664;2023-04-25T06:18:00;1.30;;;1.20;;
18320;SDS011;54904;54.350;18.664;2023-04-25T06:20:28;1.00;;;1.00;;
18320;SDS011;54904;54.350;18.664;2023-04-25T06:22:58;1.03;;;0.97;;
18320;SDS011;54904;54.350;18.664;2023-04-25T06:25:38;1.10;;;1.10;;
18320;SDS011;54904;54.350;18.664;2023-04-25T06:28:05;1.37;;;1.20;;
18320;SDS011;54904;54.350;18.664;2023-04-25T06:30:33;1.80;;;1.00;;
18320;SDS011;54904;54.350;18.664;2023-04-25T06:33:07;1.10;;;1.00;;
18320;SDS011;54904;54.350;18.664;2023-04-25T06:35:35;4.20;;;1.17;;
18320;SDS011;54904;54.350;18.664;2023-04-25T06:38:03;10.47;;;1.20;;
18320;SDS011;54904;54.350;18.664;2023-04-25T06:40:31;7.17;;;1.30;;
18320;SDS011;54904;54.350;18.664;2023-04-25T06:42:58;2.47;;;1.10;;
18320;SDS011;54904;54.350;18.664;2023-04-25T06:45:45;0.70;;;0.70;;
18320;SDS011;54904;54.350;18.664;2023-04-25T06:48:14;1.10;;;0.87;;
18320;SDS011;54904;54.350;18.664;2023-04-25T06:50:41;1.70;;;1.00;;
18320;SDS011;54904;54.350;18.664;2023-04-25T06:53:09;1.40;;;1.07;;
18320;SDS011;54904;54.350;18.664;2023-04-25T06:55:37;2.10;;;1.07;;
18320;SDS011;54904;54.350;18.664;2023-04-25T06:58:30;1.00;;;0.90;;
18320;SDS011;54904;54.350;18.664;2023-04-25T07:01:17;1.30;;;1.20;;
18320;SDS011;54904;54.350;18.664;2023-04-25T07:03:46;1.50;;;1.40;;
18320;SDS011;54904;54.350;18.664;2023-04-25T07:06:16;1.60;;;1.50;;
18320;SDS011;54904;54.350;18.664;2023-04-25T07:08:44;0.93;;;0.90;;
18320;SDS011;54904;54.350;18.664;2023-04-25T07:11:11;1.00;;;0.90;;
18320;SDS011;54904;54.350;18.664;2023-04-25T07:13:38;1.50;;;1.03;;
18320;SDS011;54904;54.350;18.664;2023-04-25T07:16:06;0.97;;;0.90;;
18320;SDS011;54904;54.350;18.664;2023-04-25T07:18:34;1.70;;;0.90;;
18320;SDS011;54904;54.350;18.664;2023-04-25T07:21:03;1.90;;;1.20;;
18320;SDS011;54904;54.350;18.664;2023-04-25T07:23:33;0.90;;;0.90;;
18320;SDS011;54904;54.350;18.664;2023-04-25T07:26:07;1.03;;;0.90;;
18320;SDS011;54904;54.350;18.664;2023-04-25T07:28:34;0.80;;;0.80;;
18320;SDS011;54904;54.350;18.664;2023-04-25T07:31:02;2.00;;;1.17;;
18320;SDS011;54904;54.350;18.664;2023-04-25T07:33:31;1.30;;;1.20;;
18320;SDS011;54904;54.350;18.664;2023-04-25T07:35:58;1.50;;;1.03;;
18320;SDS011;54904;54.350;18.664;2023-04-25T07:38:26;1.83;;;1.23;;
18320;SDS011;54904;54.350;18.664;2023-04-25T07:40:54;5.57;;;1.37;;
18320;SDS011;54904;54.350;18.664;2023-04-25T07:43:21;2.57;;;1.10;;
18320;SDS011;54904;54.350;18.664;2023-04-25T07:45:55;1.50;;;1.40;;
18320;SDS011;54904;54.350;18.664;2023-04-25T07:48:25;1.70;;;1.10;;
18320;SDS011;54904;54.350;18.664;2023-04-25T07:50:52;1.20;;;1.10;;
18320;SDS011;54904;54.350;18.664;2023-04-25T07:53:20;0.97;;;0.97;;
18320;SDS011;54904;54.350;18.664;2023-04-25T07:55:56;0.80;;;0.80;;
18320;SDS011;54904;54.350;18.664;2023-04-25T07:58:23;0.97;;;0.97;;
18320;SDS011;54904;54.350;18.664;2023-04-25T08:00:54;0.70;;;0.70;;
18320;SDS011;54904;54.350;18.664;2023-04-25T08:03:43;1.20;;;1.00;;
18320;SDS011;54904;54.350;18.664;2023-04-25T08:06:18;0.60;;;0.60;;
18320;SDS011;54904;54.350;18.664;2023-04-25T08:08:58;1.90;;;0.60;;
18320;SDS011;54904;54.350;18.664;2023-04-25T08:11:34;0.80;;;0.60;;
18320;SDS011;54904;54.350;18.664;2023-04-25T08:14:02;0.70;;;0.70;;
18320;SDS011;54904;54.350;18.664;2023-04-25T08:16:29;2.00;;;0.60;;
18320;SDS011;54904;54.350;18.664;2023-04-25T08:18:56;0.87;;;0.87;;
18320;SDS011;54904;54.350;18.664;2023-04-25T08:21:23;1.20;;;0.80;;
18320;SDS011;54904;54.350;18.664;2023-04-25T08:23:53;0.63;;;0.60;;
18320;SDS011;54904;54.350;18.664;2023-04-25T08:26:25;0.70;;;0.70;;
18320;SDS011;54904;54.350;18.664;2023-04-25T08:28:53;3.27;;;0.80;;
18320;SDS011;54904;54.350;18.664;2023-04-25T08:31:23;0.60;;;0.60;;
18320;SDS011;54904;54.350;18.664;2023-04-25T08:33:56;0.60;;;0.60;;
18320;SDS011;54904;54.350;18.664;2023-04-25T08:36:32;0.80;;;0.80;;
18320;SDS011;54904;54.350;18.664;2023-04-25T08:38:59;0.80;;;0.67;;
18320;SDS011;54904;54.350;18.664;2023-04-25T08:41:26;1.17;;;0.80;;
18320;SDS011;54904;54.350;18.664;2023-04-25T08:43:56;0.60;;;0.60;;
18320;SDS011;54904;54.350;18.664;2023-04-25T08:46:25;0.93;;;0.70;;
18320;SDS011;54904;54.350;18.664;2023-04-25T08:49:11;0.70;;;0.70;;
18320;SDS011;54904;54.350;18.664;2023-04-25T08:51:40;0.60;;;0.60;;
18320;SDS011;54904;54.350;18.664;2023-04-25T08:54:12;0.87;;;0.70;;
18320;SDS011;54904;54.350;18.664;2023-04-25T08:56:43;0.93;;;0.80;;
18320;SDS011;54904;54.350;18.664;2023-04-25T08:59:14;0.80;;;0.80;;
18320;SDS011;54904;54.350;18.664;2023-04-25T09:01:43;0.60;;;0.60;;
18320;SDS011;54904;54.350;18.664;2023-04-25T09:04:11;0.63;;;0.63;;
18320;SDS011;54904;54.350;18.664;2023-04-25T09:06:39;1.80;;;0.60;;
18320;SDS011;54904;54.350;18.664;2023-04-25T09:09:08;0.70;;;0.70;;
18320;SDS011;54904;54.350;18.664;2023-04-25T09:11:36;0.67;;;0.60;;
18320;SDS011;54904;54.350;18.664;2023-04-25T09:14:15;0.60;;;0.60;;
18320;SDS011;54904;54.350;18.664;2023-04-25T09:17:10;0.90;;;0.70;;
18320;SDS011;54904;54.350;18.664;2023-04-25T09:19:42;1.03;;;0.90;;
18320;SDS011;54904;54.350;18.664;2023-04-25T09:22:19;1.67;;;0.67;;
18320;SDS011;54904;54.350;18.664;2023-04-25T09:24:48;0.50;;;0.50;;
18320;SDS011;54904;54.350;18.664;2023-04-25T09:27:18;3.80;;;0.90;;
18320;SDS011;54904;54.350;18.664;2023-04-25T09:29:56;0.60;;;0.60;;
18320;SDS011;54904;54.350;18.664;2023-04-25T09:32:24;3.47;;;0.80;;
18320;SDS011;54904;54.350;18.664;2023-04-25T09:34:55;1.23;;;0.70;;
18320;SDS011;54904;54.350;18.664;2023-04-25T09:37:25;11.83;;;1.63;;
18320;SDS011;54904;54.350;18.664;2023-04-25T09:40:13;2.63;;;0.93;;
18320;SDS011;54904;54.350;18.664;2023-04-25T09:42:54;16.90;;;2.23;;
18320;SDS011;54904;54.350;18.664;2023-04-25T09:45:24;29.97;;;2.00;;
18320;SDS011;54904;54.350;18.664;2023-04-25T09:47:55;12.17;;;1.97;;
18320;SDS011;54904;54.350;18.664;2023-04-25T09:50:27;8.10;;;2.23;;
18320;SDS011;54904;54.350;18.664;2023-04-25T09:53:04;5.30;;;1.40;;
18320;SDS011;54904;54.350;18.664;2023-04-25T09:55:52;6.20;;;1.10;;
18320;SDS011;54904;54.350;18.664;2023-04-25T09:58:20;18.50;;;1.80;;
18320;SDS011;54904;54.350;18.664;2023-04-25T10:00:49;14.87;;;1.90;;
18320;SDS011;54904;54.350;18.664;2023-04-25T10:03:29;7.33;;;1.63;;
18320;SDS011;54904;54.350;18.664;2023-04-25T10:06:19;4.70;;;1.40;;
18320;SDS011;54904;54.350;18.664;2023-04-25T10:08:49;15.60;;;2.50;;
18320;SDS011;54904;54.350;18.664;2023-04-25T10:11:21;8.73;;;1.67;;
18320;SDS011;54904;54.350;18.664;2023-04-25T10:13:51;6.57;;;1.30;;
18320;SDS011;54904;54.350;18.664;2023-04-25T10:16:20;6.37;;;1.50;;
18320;SDS011;54904;54.350;18.664;2023-04-25T10:18:48;9.30;;;1.17;;
18320;SDS011;54904;54.350;18.664;2023-04-25T10:21:16;4.10;;;1.00;;
18320;SDS011;54904;54.350;18.664;2023-04-25T10:23:45;0.90;;;0.90;;
18320;SDS011;54904;54.350;18.664;2023-04-25T10:26:13;0.87;;;0.87;;
18320;SDS011;54904;54.350;18.664;2023-04-25T10:28:54;4.90;;;0.90;;
18320;SDS011;54904;54.350;18.664;2023-04-25T10:31:24;1.40;;;1.07;;
18320;SDS011;54904;54.350;18.664;2023-04-25T10:33:51;2.83;;;0.80;;
18320;SDS011;54904;54.350;18.664;2023-04-25T10:36:20;11.40;;;0.90;;
18320;SDS011;54904;54.350;18.664;2023-04-25T10:38:48;2.23;;;1.00;;
18320;SDS011;54904;54.350;18.664;2023-04-25T10:41:17;2.30;;;0.80;;
18320;SDS011;54904;54.350;18.664;2023-04-25T10:43:46;1.43;;;0.80;;
18320;SDS011;54904;54.350;18.664;2023-04-25T10:46:15;2.87;;;0.77;;
18320;SDS011;54904;54.350;18.664;2023-04-25T10:48:50;0.93;;;0.60;;
18320;SDS011;54904;54.350;18.664;2023-04-25T10:51:20;0.40;;;0.40;;
18320;SDS011;54904;54.350;18.664;2023-04-25T10:53:58;2.20;;;0.63;;
18320;SDS011;54904;54.350;18.664;2023-04-25T10:56:26;1.03;;;0.70;;
18320;SDS011;54904;54.350;18.664;2023-04-25T10:59:04;1.50;;;0.80;;
18320;SDS011;54904;54.350;18.664;2023-04-25T11:01:37;0.87;;;0.87;;
18320;SDS011;54904;54.350;18.664;2023-04-25T11:04:07;0.80;;;0.80;;
18320;SDS011;54904;54.350;18.664;2023-04-25T11:06:46;2.97;;;0.80;;
18320;SDS011;54904;54.350;18.664;2023-04-25T11:09:24;3.00;;;1.00;;
18320;SDS011;54904;54.350;18.664;2023-04-25T11:11:53;0.90;;;0.90;;
18320;SDS011;54904;54.350;18.664;2023-04-25T11:14:21;0.93;;;0.70;;
18320;SDS011;54904;54.350;18.664;2023-04-25T11:16:52;1.37;;;1.10;;
18320;SDS011;54904;54.350;18.664;2023-04-25T11:19:21;0.97;;;0.90;;
18320;SDS011;54904;54.350;18.664;2023-04-25T11:21:49;2.47;;;0.70;;
18320;SDS011;54904;54.350;18.664;2023-04-25T11:24:16;1.80;;;1.10;;
18320;SDS011;54904;54.350;18.664;2023-04-25T11:26:43;0.87;;;0.87;;
18320;SDS011;54904;54.350;18.664;2023-04-25T11:29:13;0.97;;;0.97;;
18320;SDS011;54904;54.350;18.664;2023-04-25T11:31:42;0.90;;;0.90;;
18320;SDS011;54904;54.350;18.664;2023-04-25T11:34:10;2.17;;;1.00;;
18320;SDS011;54904;54.350;18.664;2023-04-25T11:36:39;0.77;;;0.70;;
18320;SDS011;54904;54.350;18.664;2023-04-25T11:39:06;0.70;;;0.70;;
18320;SDS011;54904;54.350;18.664;2023-04-25T11:41:34;0.90;;;0.90;;
18320;SDS011;54904;54.350;18.664;2023-04-25T11:44:03;0.80;;;0.80;;
18320;SDS011;54904;54.350;18.664;2023-04-25T11:46:33;0.63;;;0.63;;
18320;SDS011;54904;54.350;18.664;2023-04-25T11:49:00;0.70;;;0.70;;
18320;SDS011;54904;54.350;18.664;2023-04-25T11:51:29;0.90;;;0.90;;
18320;SDS011;54904;54.350;18.664;2023-04-25T11:53:58;0.90;;;0.90;;
18320;SDS011;54904;54.350;18.664;2023-04-25T11:56:25;0.90;;;0.90;;
18320;SDS011;54904;54.350;18.664;2023-04-25T11:58:59;1.00;;;0.90;;
18320;SDS011;54904;54.350;18.664;2023-04-25T12:01:28;0.80;;;0.80;;
18320;SDS011;54904;54.350;18.664;2023-04-25T12:03:55;2.30;;;0.90;;
18320;SDS011;54904;54.350;18.664;2023-04-25T12:06:25;0.70;;;0.70;;
18320;SDS011;54904;54.350;18.664;2023-04-25T12:09:04;2.23;;;0.80;;
18320;SDS011;54904;54.350;18.664;2023-04-25T12:11:40;0.90;;;0.90;;
18320;SDS011;54904;54.350;18.664;2023-04-25T12:14:08;1.03;;;1.03;;
18320;SDS011;54904;54.350;18.664;2023-04-25T12:16:42;2.87;;;1.80;;
18320;SDS011;54904;54.350;18.664;2023-04-25T12:19:13;1.50;;;1.40;;
18320;SDS011;54904;54.350;18.664;2023-04-25T12:21:40;1.60;;;1.50;;
18320;SDS011;54904;54.350;18.664;2023-04-25T12:24:10;1.87;;;1.50;;
18320;SDS011;54904;54.350;18.664;2023-04-25T12:26:48;2.17;;;1.33;;
18320;SDS011;54904;54.350;18.664;2023-04-25T12:29:17;1.20;;;1.20;;
18320;SDS011;54904;54.350;18.664;2023-04-25T12:31:45;1.23;;;1.13;;
18320;SDS011;54904;54.350;18.664;2023-04-25T12:34:13;1.03;;;0.93;;
18320;SDS011;54904;54.350;18.664;2023-04-25T12:36:40;1.90;;;0.90;;
18320;SDS011;54904;54.350;18.664;2023-04-25T12:39:07;1.17;;;1.07;;
18320;SDS011;54904;54.350;18.664;2023-04-25T12:41:36;1.30;;;1.20;;
18320;SDS011;54904;54.350;18.664;2023-04-25T12:44:03;1.03;;;1.03;;
18320;SDS011;54904;54.350;18.664;2023-04-25T12:46:30;1.03;;;1.00;;
18320;SDS011;54904;54.350;18.664;2023-04-25T12:48:57;1.60;;;1.03;;
18320;SDS011;54904;54.350;18.664;2023-04-25T12:51:25;5.80;;;1.97;;
18320;SDS011;54904;54.350;18.664;2023-04-25T12:53:53;1.77;;;1.67;;
18320;SDS011;54904;54.350;18.664;2023-04-25T12:56:20;2.60;;;1.70;;
18320;SDS011;54904;54.350;18.664;2023-04-25T12:58:48;1.57;;;1.30;;
18320;SDS011;54904;54.350;18.664;2023-04-25T13:01:15;1.40;;;1.30;;
18320;SDS011;54904;54.350;18.664;2023-04-25T13:03:43;1.00;;;1.00;;
18320;SDS011;54904;54.350;18.664;2023-04-25T13:06:10;1.10;;;1.03;;
18320;SDS011;54904;54.350;18.664;2023-04-25T13:08:38;1.07;;;1.07;;
18320;SDS011;54904;54.350;18.664;2023-04-25T13:11:06;2.60;;;1.10;;
18320;SDS011;54904;54.350;18.664;2023-04-25T13:13:33;1.60;;;0.90;;
18320;SDS011;54904;54.350;18.664;2023-04-25T13:16:02;1.07;;;0.90;;
18320;SDS011;54904;54.350;18.664;2023-04-25T13:18:30;0.97;;;0.90;;
18320;SDS011;54904;54.350;18.664;2023-04-25T13:20:57;0.90;;;0.90;;
18320;SDS011;54904;54.350;18.664;2023-04-25T13:23:27;0.80;;;0.80;;
18320;SDS011;54904;54.350;18.664;2023-04-25T13:25:55;0.80;;;0.80;;
18320;SDS011;54904;54.350;18.664;2023-04-25T13:28:23;0.80;;;0.80;;
18320;SDS011;54904;54.350;18.664;2023-04-25T13:30:51;0.70;;;0.70;;
18320;SDS011;54904;54.350;18.664;2023-04-25T13:33:19;1.53;;;0.80;;
18320;SDS011;54904;54.350;18.664;2023-04-25T13:35:48;0.87;;;0.87;;
18320;SDS011;54904;54.350;18.664;2023-04-25T13:38:19;0.83;;;0.83;;
18320;SDS011;54904;54.350;18.664;2023-04-25T13:40:47;0.77;;;0.77;;
18320;SDS011;54904;54.350;18.664;2023-04-25T13:43:17;0.73;;;0.73;;
18320;SDS011;54904;54.350;18.664;2023-04-25T13:45:45;0.60;;;0.60;;
18320;SDS011;54904;54.350;18.664;2023-04-25T13:48:12;0.60;;;0.60;;
18320;SDS011;54904;54.350;18.664;2023-04-25T13:50:40;0.60;;;0.60;;
18320;SDS011;54904;54.350;18.664;2023-04-25T13:53:08;0.57;;;0.57;;
18320;SDS011;54904;54.350;18.664;2023-04-25T13:55:35;1.80;;;1.50;;
18320;SDS011;54904;54.350;18.664;2023-04-25T13:58:02;1.60;;;1.50;;
18320;SDS011;54904;54.350;18.664;2023-04-25T14:00:33;2.10;;;1.90;;
18320;SDS011;54904;54.350;18.664;2023-04-25T14:03:03;2.87;;;2.40;;
18320;SDS011;54904;54.350;18.664;2023-04-25T14:05:32;2.90;;;1.63;;
18320;SDS011;54904;54.350;18.664;2023-04-25T14:08:05;2.00;;;1.90;;
18320;SDS011;54904;54.350;18.664;2023-04-25T14:10:32;2.27;;;1.80;;
18320;SDS011;54904;54.350;18.664;2023-04-25T14:13:00;3.57;;;2.23;;
18320;SDS011;54904;54.350;18.664;2023-04-25T14:15:28;2.13;;;1.90;;
18320;SDS011;54904;54.350;18.664;2023-04-25T14:17:56;2.63;;;1.53;;
18320;SDS011;54904;54.350;18.664;2023-04-25T14:20:23;3.53;;;1.60;;
18320;SDS011;54904;54.350;18.664;2023-04-25T14:22:51;2.30;;;1.43;;
18320;SDS011;54904;54.350;18.664;2023-04-25T14:25:21;1.53;;;1.33;;
18320;SDS011;54904;54.350;18.664;2023-04-25T14:27:48;1.60;;;1.50;;
18320;SDS011;54904;54.350;18.664;2023-04-25T14:30:16;1.87;;;1.60;;
18320;SDS011;54904;54.350;18.664;2023-04-25T14:32:43;2.63;;;2.10;;
18320;SDS011;54904;54.350;18.664;2023-04-25T14:35:11;3.50;;;1.80;;
18320;SDS011;54904;54.350;18.664;2023-04-25T14:37:38;2.20;;;2.03;;
18320;SDS011;54904;54.350;18.664;2023-04-25T14:40:06;5.77;;;2.77;;
18320;SDS011;54904;54.350;18.664;2023-04-25T14:42:37;3.50;;;2.37;;
18320;SDS011;54904;54.350;18.664;2023-04-25T14:45:04;2.33;;;1.80;;
18320;SDS011;54904;54.350;18.664;2023-04-25T14:47:33;2.37;;;1.83;;
18320;SDS011;54904;54.350;18.664;2023-04-25T14:50:01;2.00;;;1.63;;
18320;SDS011;54904;54.350;18.664;2023-04-25T14:52:28;2.17;;;1.80;;
18320;SDS011;54904;54.350;18.664;2023-04-25T14:54:55;1.70;;;1.40;;
18320;SDS011;54904;54.350;18.664;2023-04-25T14:57:22;2.20;;;0.97;;